»·PEaware :: SWA1200 KSNA-KLAS

SWA1200 :: KSNA-KLAS

FLIGHT INFORMATION

Flight Status: Arrived
Operator:
Southwest Airlines
More flights by this operator :: More flights under this callsign
Pilot: Michael C. (27126)
Aircraft: BOEING 737-800
(B738)
More flights by this aircraft type
Origin: KSNA John Wayne-Orange Co
United States
Destination: KLAS McCarran Intl
United States
More flights between these airports :: More routes between these airports
Route: FINZZ2 MISEN KEPEC6
File this flight plan on PilotEdge
Remarks: RMK / SIMBRIEF
Altitude:
(Current/Filed)
29,000ft
Speed:
(Current/Filed)
412kts
Departed: 21-Mar-20 07:54 PM
Arrived: 21-Mar-20 08:53 PM
Distance/Time
Traveled:
197nm/0:59
Distance/Time
To Go:
Arrived

Flight Plot

Page will automatically refresh every two minutes.

Flight plan parsing failed; only flown route is shown


Map Options




Map Legend


Flown Route
Filed Route
Departure Airport
Arrival Airport
Navaid (VOR, NDB)
Fix

Horizontal Profiles

Position Reports

Time Latitude Longitude Heading Altitude Ground
Speed
21-Mar-20 19:15 33.676105 -117.864418 115 66ft 0kts
21-Mar-20 19:16 33.676105 -117.864418 115 66ft 0kts
21-Mar-20 19:17 33.676105 -117.864418 115 66ft 0kts
21-Mar-20 19:18 33.676105 -117.864418 115 66ft 0kts
21-Mar-20 19:19 33.676105 -117.864418 115 66ft 0kts
21-Mar-20 19:20 33.676105 -117.864418 115 66ft 0kts
21-Mar-20 19:21 33.676105 -117.864418 115 66ft 0kts
21-Mar-20 19:22 33.676105 -117.864418 115 66ft 0kts
21-Mar-20 19:23 33.676105 -117.864418 115 66ft 0kts
21-Mar-20 19:24 33.676105 -117.864418 115 66ft 0kts
21-Mar-20 19:25 33.676105 -117.864418 115 66ft 0kts
21-Mar-20 19:26 33.676105 -117.864418 115 66ft 0kts
21-Mar-20 19:27 33.676105 -117.864418 115 66ft 0kts
21-Mar-20 19:28 33.676105 -117.864418 115 66ft 0kts
21-Mar-20 19:29 33.676105 -117.864418 115 66ft 0kts
21-Mar-20 19:30 33.676105 -117.864418 115 66ft 0kts
21-Mar-20 19:31 33.676105 -117.864418 115 66ft 0kts
21-Mar-20 19:32 33.676105 -117.864418 115 66ft 0kts
21-Mar-20 19:33 33.676105 -117.864418 115 66ft 0kts
21-Mar-20 19:34 33.676105 -117.864418 115 66ft 0kts
21-Mar-20 19:35 33.676105 -117.864418 115 66ft 0kts
21-Mar-20 19:36 33.676105 -117.864418 115 66ft 0kts
21-Mar-20 19:37 33.676105 -117.864418 115 66ft 0kts
21-Mar-20 19:38 33.676105 -117.864418 115 66ft 0kts
21-Mar-20 19:39 33.676105 -117.864419 115 67ft 0kts
21-Mar-20 19:40 33.676226 -117.864726 115 67ft 1kts
21-Mar-20 19:41 33.676181 -117.865146 44 67ft 2kts
21-Mar-20 19:42 33.676053 -117.865246 26 66ft 0kts
21-Mar-20 19:43 33.676054 -117.865246 26 66ft 0kts
21-Mar-20 19:44 33.676134 -117.865197 26 66ft 3kts
21-Mar-20 19:45 33.677496 -117.864322 27 66ft 19kts
21-Mar-20 19:46 33.680072 -117.862737 17 66ft 11kts
21-Mar-20 19:47 33.680514 -117.862926 315 67ft 0kts
21-Mar-20 19:48 33.680515 -117.862927 314 67ft 0kts
21-Mar-20 19:49 33.680515 -117.862927 314 67ft 0kts
21-Mar-20 19:50 33.680515 -117.862927 314 67ft 0kts
21-Mar-20 19:51 33.681185 -117.864365 295 66ft 20kts
21-Mar-20 19:52 33.680818 -117.865543 206 66ft 24kts
21-Mar-20 19:53 33.665238 -117.875363 207 379ft 168kts
21-Mar-20 19:54 33.621893 -117.896933 212 2328ft 252kts
21-Mar-20 19:55 33.554849 -117.968461 226 6263ft 279kts
21-Mar-20 19:56 33.529775 -118.066412 305 6770ft 287kts
21-Mar-20 19:57 33.606802 -118.110050 2 9606ft 295kts
21-Mar-20 19:58 33.680542 -118.077164 26 11771ft 338kts
21-Mar-20 19:59 33.735106 -118.044922 25 13465ft 356kts
21-Mar-20 20:00 33.792756 -118.011248 24 15098ft 372kts
21-Mar-20 20:01 33.855759 -117.974459 23 16725ft 388kts
21-Mar-20 20:02 33.943857 -117.910685 35 18564ft 420kts
21-Mar-20 20:03 34.029537 -117.832214 34 20448ft 439kts
21-Mar-20 20:04 34.101800 -117.749985 46 22000ft 459kts
21-Mar-20 20:05 34.157530 -117.672549 47 23178ft 471kts
21-Mar-20 20:06 34.217784 -117.585469 47 24381ft 484kts
21-Mar-20 20:07 34.279840 -117.494153 47 25541ft 496kts
21-Mar-20 20:08 34.339179 -117.405802 46 26697ft 503kts
21-Mar-20 20:09 34.397406 -117.318725 46 27585ft 514kts
21-Mar-20 20:10 34.455871 -117.231292 46 28423ft 522kts
21-Mar-20 20:11 34.519658 -117.135569 46 29119ft 532kts
21-Mar-20 20:12 34.583011 -117.041713 44 29140ft 537kts
21-Mar-20 20:13 34.647147 -116.948276 43 29135ft 529kts
21-Mar-20 20:14 34.708515 -116.858602 42 29126ft 502kts
21-Mar-20 20:15 34.765387 -116.775502 42 29135ft 502kts
21-Mar-20 20:16 34.825894 -116.688333 38 29048ft 498kts
21-Mar-20 20:17 34.890053 -116.612484 31 28044ft 470kts
21-Mar-20 20:18 34.957294 -116.545639 30 26728ft 458kts
21-Mar-20 20:19 35.028220 -116.476394 31 25331ft 468kts
21-Mar-20 20:20 35.101503 -116.402133 39 24177ft 459kts
21-Mar-20 20:21 35.164615 -116.324925 41 24124ft 472kts
21-Mar-20 20:22 35.231008 -116.242470 41 24121ft 465kts
21-Mar-20 20:23 35.301120 -116.154802 41 24123ft 467kts
21-Mar-20 20:24 35.370992 -116.066989 41 23981ft 458kts
21-Mar-20 20:25 35.437365 -115.983328 42 22659ft 466kts
21-Mar-20 20:26 35.510752 -115.890528 44 19267ft 454kts
21-Mar-20 20:27 35.591519 -115.787829 45 15397ft 426kts
21-Mar-20 20:28 35.670071 -115.687673 45 13014ft 359kts
21-Mar-20 20:29 35.735075 -115.607528 35 13011ft 315kts
21-Mar-20 20:30 35.815088 -115.572631 1 13013ft 316kts
21-Mar-20 20:31 35.895707 -115.568621 358 13006ft 315kts
21-Mar-20 20:32 35.970717 -115.533432 42 12257ft 304kts
21-Mar-20 20:33 36.009489 -115.447652 65 11000ft 279kts
21-Mar-20 20:35 36.040664 -115.367056 66 10993ft 281kts
21-Mar-20 20:36 36.040275 -115.305266 106 9786ft 284kts
21-Mar-20 20:37 36.028224 -115.247777 105 8562ft 283kts
21-Mar-20 20:38 36.018306 -115.185567 102 8007ft 258kts
21-Mar-20 20:39 36.007571 -115.127271 93 7023ft 264kts
21-Mar-20 20:40 36.038950 -115.079665 32 6072ft 252kts
21-Mar-20 20:41 36.076924 -115.050479 31 6000ft 227kts
21-Mar-20 20:42 36.117520 -115.017856 31 6013ft 227kts
21-Mar-20 20:43 36.170722 -114.976385 17 4746ft 252kts
21-Mar-20 20:44 36.215042 -115.013781 279 3991ft 207kts
21-Mar-20 20:45 36.207525 -115.048871 238 3990ft 150kts
21-Mar-20 20:46 36.191513 -115.070025 230 3972ft 154kts
21-Mar-20 20:47 36.176627 -115.090476 227 3797ft 154kts
21-Mar-20 20:48 36.162230 -115.109408 227 3646ft 156kts
21-Mar-20 20:49 36.146539 -115.125164 212 3253ft 163kts
21-Mar-20 20:50 36.127919 -115.136113 204 2712ft 153kts
21-Mar-20 20:50 36.112363 -115.145562 206 2410ft 152kts
21-Mar-20 20:52 36.090239 -115.158303 205 2121ft 117kts
21-Mar-20 20:53 36.082124 -115.162767 167 2121ft 13kts
21-Mar-20 20:53 36.081689 -115.162365 109 2121ft 0kts
21-Mar-20 20:54 36.081586 -115.160174 94 2121ft 32kts
21-Mar-20 20:56 36.081148 -115.153255 106 2121ft 27kts
21-Mar-20 20:57 36.081007 -115.148881 76 2121ft 16kts
21-Mar-20 20:57 36.081347 -115.147941 63 2121ft 0kts
21-Mar-20 20:58 36.081347 -115.147941 63 2121ft 0kts
21-Mar-20 20:59 36.081347 -115.147941 63 2121ft 0kts
21-Mar-20 21:00 36.081347 -115.147941 63 2121ft 0kts
21-Mar-20 21:01 36.081347 -115.147941 63 2121ft 0kts
21-Mar-20 21:02 36.081347 -115.147941 63 2121ft 0kts

Navigation Log

Ident Type
Flight plan parsing failed, navigation log unavailable